Time;durP1;ratioP1;P1;durP2;ratioP2;P2;SDS_P1;SDS_P2;PMS_P1;PMS_P2;Temp;Humidity;BMP_temperature;BMP_pressure;BME280_temperature;BME280_humidity;BME280_pressure;Samples;Min_cycle;Max_cycle;Signal;HPM_P1;HPM_P2
2022/09/02 00:02:16;;;;;;;2.00;1.60;;;13.30;99.90;;;;;;5020062;27;89611;-30
2022/09/02 00:04:42;;;;;;;2.45;2.25;;;13.40;99.90;;;;;;5019816;27;89679;-35
2022/09/02 00:07:08;;;;;;;2.05;1.85;;;13.30;99.90;;;;;;5020170;27;88221;-31
2022/09/02 00:09:36;;;;;;;3.20;2.42;;;13.30;99.90;;;;;;5020696;27;89871;-31
2022/09/02 00:12:02;;;;;;;1.90;1.67;;;13.30;99.90;;;;;;5019961;27;89373;-33
2022/09/02 00:14:32;;;;;;;2.72;1.38;;;13.30;99.90;;;;;;5019873;27;89718;-34
2022/09/02 00:16:59;;;;;;;9.20;2.00;;;13.20;99.90;;;;;;5017925;28;88728;-34
2022/09/02 00:19:27;;;;;;;2.28;1.80;;;13.20;99.90;;;;;;5019981;27;90435;-31
2022/09/02 00:21:54;;;;;;;2.30;1.60;;;13.20;99.90;;;;;;5020525;28;88836;-28
2022/09/02 00:24:21;;;;;;;1.92;1.83;;;13.20;99.90;;;;;;5019498;28;89441;-29
2022/09/02 00:26:47;;;;;;;7.32;2.05;;;13.10;99.90;;;;;;5020062;27;89393;-30
2022/09/02 00:29:14;;;;;;;5.95;2.50;;;13.10;99.90;;;;;;5020267;27;90075;-31
2022/09/02 00:31:41;;;;;;;3.28;2.30;;;13.10;99.90;;;;;;5020699;28;89189;-30
2022/09/02 00:34:08;;;;;;;2.80;2.30;;;13.00;99.90;;;;;;5037021;22;90076;-30
2022/09/02 00:36:34;;;;;;;2.40;1.98;;;13.00;99.90;;;;;;4981572;28;89982;-33
2022/09/02 00:39:00;;;;;;;2.20;2.00;;;13.00;99.90;;;;;;4999195;28;90435;-29
2022/09/02 00:41:27;;;;;;;1.85;1.73;;;13.00;99.90;;;;;;4980631;28;91256;-33
2022/09/02 00:44:00;;;;;;;7.60;3.08;;;12.90;99.90;;;;;;4999708;28;88922;-35
2022/09/02 00:46:28;;;;;;;2.13;2.00;;;12.90;99.90;;;;;;4999583;28;89314;-32
2022/09/02 00:49:07;;;;;;;1.90;1.80;;;12.90;99.90;;;;;;4999462;28;90263;-32
2022/09/02 00:51:38;;;;;;;1.92;1.83;;;12.90;99.90;;;;;;4985907;28;89743;-31
2022/09/02 00:54:05;;;;;;;4.18;1.80;;;12.80;99.90;;;;;;4999190;28;90006;-32
2022/09/02 00:56:31;;;;;;;2.13;1.90;;;12.80;99.90;;;;;;5000102;28;90064;-30
2022/09/02 00:58:58;;;;;;;2.83;2.08;;;12.80;99.90;;;;;;4999341;28;90557;-34
2022/09/02 01:01:25;;;;;;;2.00;1.90;;;12.80;99.90;;;;;;4998992;28;90878;-31
2022/09/02 01:03:52;;;;;;;2.65;2.45;;;12.80;99.90;;;;;;4985348;28;89508;-31
2022/09/02 01:06:23;;;;;;;2.03;1.90;;;12.80;99.90;;;;;;4998901;28;90008;-32
2022/09/02 01:08:56;;;;;;;1.92;1.83;;;12.70;99.90;;;;;;4999446;28;90352;-31
2022/09/02 01:11:23;;;;;;;1.98;1.88;;;12.70;99.90;;;;;;4998876;28;89997;-33
2022/09/02 01:13:48;;;;;;;10.27;2.33;;;12.70;99.90;;;;;;4999071;28;89427;-31
2022/09/02 01:16:41;;;;;;;3.25;2.03;;;12.60;99.90;;;;;;4981710;28;89809;-31
2022/09/02 01:19:15;;;;;;;1.83;1.73;;;12.60;99.90;;;;;;4999083;28;90342;-33
2022/09/02 01:21:46;;;;;;;2.60;2.40;;;12.50;99.90;;;;;;4999224;28;88173;-32
2022/09/02 01:24:12;;;;;;;3.53;2.85;;;12.50;99.90;;;;;;4999201;28;89236;-35
2022/09/02 01:26:38;;;;;;;2.47;1.92;;;12.50;99.90;;;;;;4998849;28;89971;-30
2022/09/02 01:29:03;;;;;;;3.60;2.60;;;12.50;99.90;;;;;;4999771;28;89356;-31
2022/09/02 01:31:29;;;;;;;2.30;2.10;;;12.40;99.90;;;;;;4998679;28;90740;-33
2022/09/02 01:33:55;;;;;;;3.72;2.10;;;12.40;99.90;;;;;;4998098;28;90357;-30
2022/09/02 01:36:21;;;;;;;2.67;2.35;;;12.40;99.90;;;;;;4998674;28;88669;-33
2022/09/02 01:38:46;;;;;;;3.28;2.22;;;12.30;99.90;;;;;;4997568;28;89769;-34
2022/09/02 01:41:12;;;;;;;2.92;2.40;;;12.30;99.90;;;;;;4998969;28;89762;-32
2022/09/02 01:43:38;;;;;;;4.38;2.00;;;12.30;99.90;;;;;;4998902;28;89523;-33
2022/09/02 01:46:03;;;;;;;2.40;2.20;;;12.20;99.90;;;;;;4998674;28;89347;-33
2022/09/02 01:48:29;;;;;;;2.63;2.42;;;12.20;99.90;;;;;;4998656;28;91636;-33
2022/09/02 01:50:59;;;;;;;3.25;2.90;;;12.20;99.90;;;;;;4999962;28;89873;-31
2022/09/02 01:53:26;;;;;;;2.40;2.22;;;12.20;99.90;;;;;;5001669;28;91073;-29
2022/09/02 01:55:51;;;;;;;3.50;2.03;;;12.20;99.90;;;;;;5002032;28;89114;-31
2022/09/02 01:58:18;;;;;;;4.07;2.60;;;12.20;99.90;;;;;;5001666;28;90355;-33
2022/09/02 02:00:44;;;;;;;2.15;2.03;;;12.10;99.90;;;;;;5001559;28;88424;-33
2022/09/02 02:03:10;;;;;;;2.75;2.55;;;12.10;99.90;;;;;;5002119;28;89738;-36
2022/09/02 02:05:36;;;;;;;3.28;2.97;;;12.10;99.90;;;;;;5001860;28;88562;-32
2022/09/02 02:08:02;;;;;;;4.75;2.83;;;12.00;99.90;;;;;;5002204;28;90558;-36
2022/09/02 02:10:28;;;;;;;2.13;1.98;;;11.90;99.90;;;;;;5002783;28;89469;-30
2022/09/02 02:12:53;;;;;;;2.97;2.10;;;11.80;99.90;;;;;;5001494;28;90281;-34
2022/09/02 02:15:20;;;;;;;2.90;2.70;;;11.80;99.90;;;;;;5002207;28;89738;-30
2022/09/02 02:17:46;;;;;;;2.50;2.22;;;11.70;99.90;;;;;;5002018;28;91648;-32
2022/09/02 02:20:14;;;;;;;2.53;2.33;;;11.70;99.90;;;;;;5001093;28;91030;-36
2022/09/02 02:22:41;;;;;;;3.40;3.03;;;11.60;99.90;;;;;;5001776;28;89436;-35
2022/09/02 02:25:08;;;;;;;2.80;2.60;;;11.60;99.90;;;;;;5001936;28;88639;-30
2022/09/02 02:27:34;;;;;;;2.85;2.63;;;11.50;99.90;;;;;;5000735;28;90378;-34
2022/09/02 02:30:00;;;;;;;4.60;3.13;;;11.50;99.90;;;;;;5001977;28;91495;-32
2022/09/02 02:32:25;;;;;;;2.53;2.22;;;11.50;99.90;;;;;;5001311;28;90120;-33
2022/09/02 02:34:51;;;;;;;2.35;2.15;;;11.50;99.90;;;;;;5001303;28;89272;-33
2022/09/02 02:37:17;;;;;;;5.18;3.28;;;11.40;99.90;;;;;;5001791;28;90135;-32
2022/09/02 02:39:42;;;;;;;13.05;2.20;;;11.50;99.90;;;;;;5001557;28;89338;-30
2022/09/02 02:42:12;;;;;;;3.55;3.25;;;11.40;99.90;;;;;;5001952;28;90173;-32
2022/09/02 02:44:39;;;;;;;2.92;2.20;;;11.40;99.90;;;;;;5001618;28;90417;-34
2022/09/02 02:47:06;;;;;;;3.65;2.88;;;11.40;99.90;;;;;;5001559;28;90293;-32
2022/09/02 02:49:36;;;;;;;2.80;2.60;;;11.40;99.90;;;;;;5000988;28;89559;-29
2022/09/02 02:52:01;;;;;;;3.72;2.55;;;11.30;99.90;;;;;;5001383;28;90058;-35
2022/09/02 02:54:27;;;;;;;2.58;2.30;;;11.30;99.90;;;;;;5001801;28;88104;-31
2022/09/02 02:56:53;;;;;;;3.38;3.08;;;11.30;99.90;;;;;;5001238;28;92117;-30
2022/09/02 02:59:18;;;;;;;4.30;3.22;;;11.30;99.90;;;;;;5001288;28;89817;-31
2022/09/02 03:01:44;;;;;;;5.88;3.25;;;11.30;99.90;;;;;;5000568;28;90699;-30
2022/09/02 03:04:09;;;;;;;3.55;2.90;;;11.30;99.90;;;;;;5000654;28;88661;-33
2022/09/02 03:06:35;;;;;;;3.22;2.92;;;11.30;99.90;;;;;;5000946;28;89306;-34
2022/09/02 03:09:00;;;;;;;7.25;2.88;;;11.30;99.90;;;;;;5000377;28;90506;-29
2022/09/02 03:11:27;;;;;;;2.13;1.92;;;11.30;99.90;;;;;;5001162;28;90558;-32
2022/09/02 03:13:53;;;;;;;3.30;3.00;;;11.20;99.90;;;;;;5001077;28;89513;-32
2022/09/02 03:16:18;;;;;;;2.45;2.30;;;11.30;99.90;;;;;;5000330;28;90212;-32
2022/09/02 03:18:45;;;;;;;2.63;2.42;;;11.30;99.90;;;;;;5001532;28;89991;-34
2022/09/02 03:21:12;;;;;;;2.20;2.10;;;11.20;99.90;;;;;;5000971;28;90076;-32
2022/09/02 03:23:38;;;;;;;4.82;2.58;;;11.20;99.90;;;;;;5001342;28;89350;-32
2022/09/02 03:26:12;;;;;;;4.30;3.53;;;11.20;99.90;;;;;;5001364;28;90710;-32
2022/09/02 03:28:38;;;;;;;3.08;2.88;;;11.20;99.90;;;;;;5000582;28;90565;-28
2022/09/02 03:31:05;;;;;;;3.38;3.17;;;11.20;99.90;;;;;;5000803;28;88934;-32
2022/09/02 03:33:31;;;;;;;3.42;3.17;;;11.20;99.90;;;;;;4999485;28;90139;-29
2022/09/02 03:35:57;;;;;;;3.40;3.10;;;11.30;99.90;;;;;;5000157;28;89833;-31
2022/09/02 03:38:22;;;;;;;3.65;3.25;;;11.30;99.90;;;;;;5000524;28;89628;-33
2022/09/02 03:40:48;;;;;;;3.08;2.88;;;11.30;99.90;;;;;;5001267;28;89511;-32
2022/09/02 03:43:14;;;;;;;3.53;2.95;;;11.30;99.90;;;;;;5000381;28;88262;-32
2022/09/02 03:45:40;;;;;;;2.53;2.42;;;11.30;99.90;;;;;;5000701;28;89766;-31
2022/09/02 03:48:06;;;;;;;2.85;2.65;;;11.30;99.90;;;;;;4999836;28;89755;-35
2022/09/02 03:50:36;;;;;;;3.63;3.33;;;11.30;99.90;;;;;;5000904;28;89609;-31
2022/09/02 03:53:04;;;;;;;3.33;3.03;;;11.20;99.90;;;;;;5000919;28;89618;-31
2022/09/02 03:55:30;;;;;;;2.75;2.55;;;11.20;99.90;;;;;;5000146;28;91587;-31
2022/09/02 03:57:56;;;;;;;3.03;2.33;;;11.20;99.90;;;;;;5000166;28;90998;-30
2022/09/02 04:00:24;;;;;;;3.03;2.58;;;11.10;99.90;;;;;;5000048;28;90100;-31
2022/09/02 04:02:51;;;;;;;2.83;2.63;;;11.10;99.90;;;;;;5000805;28;88454;-33
2022/09/02 04:05:17;;;;;;;2.92;2.72;;;11.20;99.90;;;;;;4999426;28;90142;-31
2022/09/02 04:07:44;;;;;;;3.15;2.85;;;11.20;99.90;;;;;;5000416;28;89316;-31
2022/09/02 04:10:10;;;;;;;4.93;3.13;;;11.20;99.90;;;;;;5000513;28;89722;-31
2022/09/02 04:12:37;;;;;;;4.53;3.40;;;11.30;99.90;;;;;;5000152;28;89328;-30
2022/09/02 04:15:05;;;;;;;4.72;3.05;;;11.30;99.90;;;;;;5000526;28;90649;-32
2022/09/02 04:17:31;;;;;;;3.60;3.30;;;11.40;99.90;;;;;;4999592;28;90899;-32
2022/09/02 04:19:56;;;;;;;3.67;3.28;;;11.40;99.90;;;;;;5000043;28;90213;-31
2022/09/02 04:22:22;;;;;;;2.90;2.70;;;11.40;99.90;;;;;;4998958;28;89218;-32
2022/09/02 04:24:48;;;;;;;3.80;3.20;;;11.50;99.90;;;;;;4999990;28;90288;-31
2022/09/02 04:27:14;;;;;;;2.85;2.65;;;11.50;99.90;;;;;;4999103;28;90581;-35
2022/09/02 04:29:39;;;;;;;3.58;3.22;;;11.50;99.90;;;;;;5000167;28;88411;-32
2022/09/02 04:32:05;;;;;;;4.38;2.70;;;11.50;99.90;;;;;;4999638;28;90169;-31
2022/09/02 04:34:30;;;;;;;3.65;3.10;;;11.40;99.90;;;;;;4999334;28;89990;-31
2022/09/02 04:36:56;;;;;;;3.10;2.80;;;11.40;99.90;;;;;;5000003;28;89784;-31
2022/09/02 04:39:21;;;;;;;3.42;3.13;;;11.30;99.90;;;;;;4999291;28;88358;-31
2022/09/02 04:41:47;;;;;;;3.15;2.90;;;11.30;99.90;;;;;;5000349;28;90511;-29
2022/09/02 04:44:13;;;;;;;4.03;2.95;;;11.20;99.90;;;;;;4999570;28;89679;-30
2022/09/02 04:46:38;;;;;;;3.00;2.80;;;11.20;99.90;;;;;;4998989;28;90903;-30
2022/09/02 04:49:04;;;;;;;3.33;2.80;;;11.20;99.90;;;;;;4981824;28;90615;-30
2022/09/02 04:51:30;;;;;;;3.33;3.13;;;11.20;99.90;;;;;;4999390;28;87503;-36
2022/09/02 04:53:55;;;;;;;2.90;2.70;;;11.20;99.90;;;;;;4999845;28;90334;-31
2022/09/02 04:56:24;;;;;;;3.10;2.85;;;11.20;99.90;;;;;;4999176;28;88905;-35
2022/09/02 04:58:50;;;;;;;2.83;2.63;;;11.20;99.90;;;;;;4999073;28;89401;-32
2022/09/02 05:01:22;;;;;;;2.63;2.42;;;11.20;99.90;;;;;;4999795;28;90106;-29
2022/09/02 05:03:48;;;;;;;2.97;2.72;;;11.20;99.90;;;;;;4999443;28;90254;-34
2022/09/02 05:06:17;;;;;;;5.57;3.53;;;11.20;99.90;;;;;;4998882;28;89627;-30
2022/09/02 05:08:43;;;;;;;2.67;2.50;;;11.10;99.90;;;;;;4999546;28;90347;-30
2022/09/02 05:11:12;;;;;;;6.38;3.35;;;11.10;99.90;;;;;;4998621;28;89227;-29
2022/09/02 05:13:39;;;;;;;4.18;3.03;;;11.10;99.90;;;;;;4997945;28;89807;-36
2022/09/02 05:16:05;;;;;;;12.98;3.53;;;11.10;99.90;;;;;;4998665;28;89795;-30
2022/09/02 05:18:31;;;;;;;3.40;3.08;;;11.00;99.90;;;;;;4998776;28;89117;-33
2022/09/02 05:20:56;;;;;;;3.88;3.28;;;11.00;99.90;;;;;;4999866;28;89132;-31
2022/09/02 05:23:22;;;;;;;3.63;3.25;;;11.00;99.90;;;;;;4992784;28;90229;-30
2022/09/02 05:25:48;;;;;;;3.13;2.80;;;11.00;99.90;;;;;;4998249;28;89870;-29
2022/09/02 05:28:14;;;;;;;3.53;3.22;;;11.00;99.90;;;;;;4999092;28;89475;-32
2022/09/02 05:30:41;;;;;;;4.18;3.83;;;11.10;99.90;;;;;;4998963;28;89599;-29
2022/09/02 05:33:07;;;;;;;4.25;3.72;;;11.10;99.90;;;;;;4998871;28;90673;-34
2022/09/02 05:35:33;;;;;;;3.33;3.10;;;11.20;99.90;;;;;;4998590;28;91162;-33
2022/09/02 05:37:59;;;;;;;4.05;3.17;;;11.30;99.90;;;;;;4998326;28;90265;-29
2022/09/02 05:40:25;;;;;;;3.47;3.17;;;11.40;99.90;;;;;;4999494;28;88230;-29
2022/09/02 05:42:51;;;;;;;3.90;3.60;;;11.40;99.90;;;;;;4998248;28;90441;-31
2022/09/02 05:45:17;;;;;;;4.20;3.85;;;11.50;99.90;;;;;;4998793;28;90268;-30
2022/09/02 05:47:43;;;;;;;4.20;3.40;;;11.50;99.90;;;;;;4998726;28;89433;-30
2022/09/02 05:50:09;;;;;;;16.50;4.18;;;11.60;99.90;;;;;;4997898;28;89601;-30
2022/09/02 05:52:34;;;;;;;4.03;3.70;;;11.60;99.90;;;;;;4998225;28;90033;-31
2022/09/02 05:55:02;;;;;;;4.05;3.65;;;11.60;99.90;;;;;;4998624;28;90857;-31
2022/09/02 05:57:28;;;;;;;3.67;3.37;;;11.60;99.90;;;;;;4997456;28;89447;-29
2022/09/02 05:59:55;;;;;;;6.18;3.60;;;11.70;99.90;;;;;;4998015;28;90253;-34
2022/09/02 06:02:22;;;;;;;6.20;3.65;;;11.80;99.90;;;;;;4997803;28;92572;-31
2022/09/02 06:04:50;;;;;;;3.88;3.53;;;11.90;99.90;;;;;;4997340;28;89451;-32
2022/09/02 06:07:18;;;;;;;4.00;3.70;;;12.00;99.90;;;;;;4997584;28;89310;-31
2022/09/02 06:09:44;;;;;;;4.50;4.10;;;12.00;99.90;;;;;;4998299;28;89078;-34
2022/09/02 06:12:15;;;;;;;4.10;3.80;;;12.20;99.90;;;;;;4998243;28;88766;-33
2022/09/02 06:14:41;;;;;;;4.85;4.38;;;12.20;99.90;;;;;;4998471;28;88824;-30
2022/09/02 06:17:08;;;;;;;6.63;4.65;;;12.40;99.90;;;;;;4997057;28;89288;-31
2022/09/02 06:19:34;;;;;;;4.03;3.70;;;12.40;99.90;;;;;;4997304;28;89433;-35
2022/09/02 06:22:01;;;;;;;6.55;4.78;;;12.50;99.90;;;;;;4998638;28;90567;-31
2022/09/02 06:24:28;;;;;;;8.95;3.22;;;12.60;99.90;;;;;;4997082;28;90936;-30
2022/09/02 06:26:54;;;;;;;3.95;3.65;;;12.70;99.90;;;;;;4998143;28;90346;-35
2022/09/02 06:29:21;;;;;;;4.25;3.95;;;12.80;99.90;;;;;;4998109;28;89434;-30
2022/09/02 06:31:48;;;;;;;3.80;3.53;;;12.90;99.90;;;;;;4997805;28;89993;-35
2022/09/02 06:34:15;;;;;;;6.10;4.72;;;13.00;99.90;;;;;;4983478;28;91534;-33
2022/09/02 06:36:43;;;;;;;5.15;4.28;;;13.10;99.90;;;;;;4998057;28;89904;-32
2022/09/02 06:39:10;;;;;;;;;;;13.30;99.90;;;;;;5001856;28;89661;-30
2022/09/02 06:41:38;;;;;;;4.65;4.20;;;13.40;99.90;;;;;;5002524;28;91157;-32
2022/09/02 06:44:05;;;;;;;4.38;4.07;;;13.60;99.90;;;;;;5000618;28;89875;-30
2022/09/02 06:46:41;;;;;;;5.75;4.15;;;13.80;99.90;;;;;;5001012;28;90021;-36
2022/09/02 06:49:09;;;;;;;6.57;4.72;;;13.90;99.90;;;;;;5001834;28;90754;-33
2022/09/02 06:51:37;;;;;;;4.50;3.80;;;14.10;99.90;;;;;;5001107;28;91579;-32
2022/09/02 06:54:03;;;;;;;;;;;14.20;99.90;;;;;;5000970;28;89463;-34
2022/09/02 06:56:29;;;;;;;4.07;3.67;;;14.30;99.90;;;;;;5002383;28;90545;-36
2022/09/02 06:58:55;;;;;;;4.68;3.63;;;14.50;99.90;;;;;;5001517;28;89078;-31
2022/09/02 07:01:24;;;;;;;10.13;3.92;;;14.60;99.90;;;;;;5000607;28;89882;-31
2022/09/02 07:06:36;;;;;;;3.42;3.13;;;14.90;99.90;;;;;;5001218;28;89475;-30
2022/09/02 07:09:03;;;;;;;4.47;3.92;;;15.00;99.90;;;;;;5000821;28;88688;-33
2022/09/02 07:11:28;;;;;;;3.70;3.40;;;15.20;99.90;;;;;;5000525;28;90408;-32
2022/09/02 07:13:54;;;;;;;4.20;3.55;;;15.40;99.90;;;;;;4982478;28;90208;-33
2022/09/02 07:16:20;;;;;;;10.18;3.42;;;15.60;99.90;;;;;;5000533;28;90390;-34
2022/09/02 07:18:45;;;;;;;3.42;3.22;;;15.70;99.90;;;;;;5001143;28;88371;-34
2022/09/02 07:21:12;;;;;;;3.83;3.53;;;15.80;99.90;;;;;;5000673;28;91206;-32
2022/09/02 07:23:38;;;;;;;6.40;3.15;;;16.00;99.90;;;;;;5000538;28;89659;-33
2022/09/02 07:26:09;;;;;;;3.33;3.13;;;16.20;99.90;;;;;;5000838;28;89900;-32
2022/09/02 07:28:35;;;;;;;3.78;3.35;;;16.30;99.90;;;;;;5000902;28;87546;-35
2022/09/02 07:31:00;;;;;;;7.05;3.20;;;16.40;99.90;;;;;;5001128;28;90289;-31
2022/09/02 07:33:26;;;;;;;4.50;3.78;;;16.60;99.90;;;;;;5000189;28;89193;-31
2022/09/02 07:35:52;;;;;;;4.03;3.58;;;16.80;99.90;;;;;;5001264;28;88941;-31
2022/09/02 07:38:18;;;;;;;4.57;2.85;;;16.90;99.90;;;;;;4999498;28;90254;-35
2022/09/02 07:40:45;;;;;;;3.88;2.90;;;17.10;99.90;;;;;;5000656;28;90200;-32
2022/09/02 07:43:11;;;;;;;5.25;3.10;;;17.30;99.90;;;;;;5000696;28;90141;-31
2022/09/02 07:45:37;;;;;;;3.50;3.20;;;17.40;99.90;;;;;;4999996;28;88519;-30
2022/09/02 07:48:07;;;;;;;11.10;3.40;;;17.50;99.90;;;;;;5000626;28;89184;-35
2022/09/02 07:50:34;;;;;;;3.67;3.38;;;17.60;99.90;;;;;;5000693;28;90331;-32
2022/09/02 07:53:01;;;;;;;3.33;3.07;;;17.70;99.90;;;;;;5000607;28;89526;-31
2022/09/02 07:55:29;;;;;;;3.72;3.42;;;17.90;99.90;;;;;;4999326;28;89938;-34
2022/09/02 07:57:55;;;;;;;;;;;18.00;99.90;;;;;;5000900;28;88578;-32
2022/09/02 08:00:21;;;;;;;5.00;2.50;;;18.20;99.90;;;;;;5001586;28;90909;-32
2022/09/02 08:02:48;;;;;;;3.63;3.20;;;18.30;99.90;;;;;;4999605;28;90389;-35
2022/09/02 08:05:14;;;;;;;3.88;2.90;;;18.40;99.90;;;;;;4999950;28;90122;-33
2022/09/02 08:07:40;;;;;;;2.70;2.50;;;18.60;99.90;;;;;;5000711;28;88133;-35
2022/09/02 08:10:09;;;;;;;3.35;3.15;;;18.70;99.90;;;;;;4999734;28;90187;-35
2022/09/02 08:12:35;;;;;;;3.10;2.83;;;18.90;99.90;;;;;;4999634;28;89436;-33
2022/09/02 08:15:01;;;;;;;3.97;2.33;;;19.10;99.90;;;;;;5000564;28;89456;-31
2022/09/02 08:17:27;;;;;;;5.13;2.85;;;19.30;99.90;;;;;;5000647;28;89519;-31
2022/09/02 08:19:52;;;;;;;6.55;3.17;;;19.40;99.90;;;;;;5000475;28;91325;-35
2022/09/02 08:22:18;;;;;;;2.22;2.03;;;19.50;99.90;;;;;;4999627;28;89288;-33
2022/09/02 08:24:43;;;;;;;2.60;2.40;;;19.60;99.90;;;;;;4999601;28;89760;-32
2022/09/02 08:27:09;;;;;;;3.30;3.00;;;19.80;99.90;;;;;;5000379;28;89955;-31
2022/09/02 08:29:35;;;;;;;5.18;3.25;;;19.90;99.90;;;;;;4998994;28;90291;-32
2022/09/02 08:32:01;;;;;;;4.60;3.00;;;20.00;99.90;;;;;;5000374;28;90620;-32
2022/09/02 08:34:27;;;;;;;4.68;2.75;;;20.10;99.90;;;;;;4998859;28;89983;-33
2022/09/02 08:36:52;;;;;;;3.42;3.17;;;20.20;99.90;;;;;;5000031;28;89615;-33
2022/09/02 08:39:18;;;;;;;2.33;2.13;;;20.40;99.90;;;;;;4999851;28;90278;-34
2022/09/02 08:41:51;;;;;;;4.70;2.80;;;20.50;99.90;;;;;;4999784;28;89922;-31
2022/09/02 08:44:21;;;;;;;3.35;3.05;;;20.60;99.90;;;;;;4999862;28;89788;-31
2022/09/02 08:46:50;;;;;;;5.07;2.60;;;20.70;99.90;;;;;;5000350;28;88888;-34
2022/09/02 08:49:25;;;;;;;3.97;2.20;;;20.70;99.90;;;;;;4999714;28;90301;-30
2022/09/02 08:51:55;;;;;;;2.42;2.28;;;20.70;99.90;;;;;;4998949;28;90844;-33
2022/09/02 08:54:28;;;;;;;3.97;2.38;;;20.80;99.90;;;;;;4999583;28;90066;-33
2022/09/02 08:56:54;;;;;;;3.00;2.80;;;20.90;99.90;;;;;;4999992;28;88783;-34
2022/09/02 08:59:24;;;;;;;5.03;2.90;;;21.00;99.90;;;;;;4998605;28;90794;-32
2022/09/02 09:02:16;;;;;;;2.95;2.28;;;21.00;99.90;;;;;;4998217;28;89845;-33
2022/09/02 09:04:42;;;;;;;3.63;3.08;;;21.10;99.90;;;;;;4999442;28;89556;-33
2022/09/02 09:07:16;;;;;;;12.88;3.13;;;21.20;99.90;;;;;;4999193;28;89334;-31
2022/09/02 09:09:45;;;;;;;7.03;2.80;;;21.40;99.90;;;;;;4999529;28;90258;-33
2022/09/02 09:12:48;;;;;;;4.97;2.47;;;21.40;96.40;;;;;;4999222;28;89855;-33
2022/09/02 09:16:01;;;;;;;3.05;2.85;;;21.50;97.40;;;;;;4998555;28;89996;-34
2022/09/02 09:18:35;;;;;;;9.68;2.53;;;21.50;95.10;;;;;;4979856;28;90140;-34
2022/09/02 09:21:02;;;;;;;9.50;3.00;;;21.60;93.50;;;;;;4998339;28;90615;-31
2022/09/02 09:23:32;;;;;;;2.42;2.28;;;21.60;93.10;;;;;;4998390;28;89211;-31
2022/09/02 09:26:10;;;;;;;2.95;2.58;;;21.70;93.50;;;;;;4997838;28;89857;-32
2022/09/02 09:28:42;;;;;;;2.60;2.40;;;21.80;96.40;;;;;;4999640;28;88235;-34
2022/09/02 09:31:14;;;;;;;3.03;2.30;;;22.00;93.30;;;;;;4998087;28;90377;-31
2022/09/02 09:33:55;;;;;;;2.83;2.63;;;22.10;84.70;;;;;;4998352;28;88894;-33
2022/09/02 09:36:47;;;;;;;11.80;2.42;;;22.20;81.00;;;;;;4982148;28;89782;-34
2022/09/02 09:39:28;;;;;;;2.97;2.05;;;22.20;76.40;;;;;;4998028;28;88846;-33
2022/09/02 09:41:55;;;;;;;7.53;2.30;;;22.30;78.40;;;;;;4996231;28;91876;-35
2022/09/02 09:44:50;;;;;;;2.63;2.00;;;22.40;79.40;;;;;;4995528;28;89588;-33
2022/09/02 09:47:18;;;;;;;2.03;1.92;;;22.60;74.00;;;;;;4979113;28;90406;-32
2022/09/02 09:50:17;;;;;;;2.42;2.22;;;22.70;72.40;;;;;;4998195;28;89141;-35
2022/09/02 09:52:44;;;;;;;2.53;2.33;;;22.80;69.10;;;;;;4989393;28;89317;-34
2022/09/02 09:55:20;;;;;;;6.18;2.42;;;22.80;67.00;;;;;;4999002;28;90029;-33
2022/09/02 09:57:47;;;;;;;3.10;2.78;;;22.80;68.00;;;;;;4997939;28;89494;-32
2022/09/02 10:00:25;;;;;;;2.30;2.10;;;22.90;67.40;;;;;;4999119;28;90044;-36
2022/09/02 10:02:53;;;;;;;;;;;23.00;63.90;;;;;;4999543;28;90509;-34
2022/09/02 10:05:24;;;;;;;2.55;2.10;;;23.00;65.40;;;;;;4999531;28;89685;-34
2022/09/02 10:07:57;;;;;;;3.40;2.13;;;23.10;63.40;;;;;;4999098;28;89192;-32
2022/09/02 10:10:25;;;;;;;3.72;2.25;;;23.20;63.50;;;;;;4997985;28;90261;-35
2022/09/02 10:12:53;;;;;;;1.75;1.50;;;23.30;65.00;;;;;;5001006;28;90971;-35
2022/09/02 10:15:40;;;;;;;6.18;2.17;;;23.40;63.60;;;;;;5002159;28;89559;-33
2022/09/02 10:18:22;;;;;;;3.20;2.10;;;23.50;60.40;;;;;;5002394;28;89440;-33
2022/09/02 10:21:05;;;;;;;2.30;2.05;;;23.60;58.30;;;;;;4999114;28;89542;-34
2022/09/02 10:23:46;;;;;;;13.82;2.10;;;23.60;59.00;;;;;;4998221;28;91716;-34
2022/09/02 10:26:39;;;;;;;1.85;1.75;;;23.70;60.70;;;;;;5001337;28;89297;-36
2022/09/02 10:29:39;;;;;;;2.63;1.48;;;23.70;56.20;;;;;;4996551;28;89381;-31
2022/09/02 10:32:40;;;;;;;1.23;1.20;;;23.70;55.30;;;;;;5001363;28;89504;-32
2022/09/02 10:35:26;;;;;;;2.30;1.90;;;23.70;55.80;;;;;;5001555;28;90240;-35
2022/09/02 10:37:58;;;;;;;1.70;1.60;;;23.60;57.10;;;;;;5000363;28;90699;-33
2022/09/02 10:40:49;;;;;;;1.80;1.70;;;23.80;54.40;;;;;;5000740;28;90683;-34
2022/09/02 10:43:47;;;;;;;4.47;1.40;;;23.70;54.70;;;;;;5000744;28;89709;-32
2022/09/02 10:46:19;;;;;;;4.65;1.85;;;23.70;54.10;;;;;;4997229;28;89295;-35
2022/09/02 10:49:09;;;;;;;2.85;1.70;;;23.70;55.80;;;;;;5000592;28;89511;-32
2022/09/02 10:51:43;;;;;;;2.22;1.80;;;23.70;55.30;;;;;;4982599;28;89426;-32
2022/09/02 10:54:19;;;;;;;1.95;1.73;;;23.80;54.70;;;;;;5001544;28;89152;-31
2022/09/02 10:56:58;;;;;;;6.05;1.55;;;23.80;54.70;;;;;;5001684;28;90347;-31
2022/09/02 10:59:31;;;;;;;2.60;1.38;;;23.70;55.10;;;;;;5000766;28;90398;-31
2022/09/02 11:02:10;;;;;;;2.83;2.08;;;23.80;55.60;;;;;;4981380;28;89365;-36
2022/09/02 11:04:41;;;;;;;2.10;1.90;;;23.80;54.90;;;;;;4999642;28;88813;-33
2022/09/02 11:07:13;;;;;;;1.67;1.58;;;23.80;56.60;;;;;;4995418;28;89879;-34
2022/09/02 11:09:53;;;;;;;1.83;1.25;;;23.90;55.90;;;;;;4997585;28;88770;-33
2022/09/02 11:12:33;;;;;;;1.73;1.60;;;24.00;55.00;;;;;;4998325;28;90375;-31
2022/09/02 11:15:28;;;;;;;1.50;1.40;;;24.10;55.20;;;;;;4999028;28;88800;-34
2022/09/02 11:17:59;;;;;;;4.32;1.90;;;24.10;54.60;;;;;;4993006;28;90677;-34
2022/09/02 11:20:35;;;;;;;2.97;2.65;;;24.10;54.90;;;;;;4998217;28;89828;-33
2022/09/02 11:23:26;;;;;;;2.15;1.60;;;24.20;53.30;;;;;;4996639;28;90963;-32
2022/09/02 11:26:02;;;;;;;3.20;1.70;;;24.20;52.50;;;;;;4998612;28;89731;-32
2022/09/02 11:28:44;;;;;;;2.88;1.60;;;24.00;53.20;;;;;;4997346;28;91464;-30
2022/09/02 11:31:35;;;;;;;8.18;1.98;;;24.00;54.40;;;;;;4997769;28;91039;-32
2022/09/02 11:34:34;;;;;;;2.35;1.60;;;24.00;54.80;;;;;;4997594;28;91632;-33
2022/09/02 11:37:13;;;;;;;1.90;1.63;;;24.10;53.70;;;;;;4984998;28;90090;-34
2022/09/02 11:39:46;;;;;;;1.80;1.70;;;24.10;54.60;;;;;;4997861;28;91287;-36
2022/09/02 11:42:40;;;;;;;1.90;1.70;;;24.20;52.90;;;;;;4997527;28;89639;-36
2022/09/02 11:45:16;;;;;;;1.98;1.60;;;24.20;52.90;;;;;;4998173;28;90491;-32
2022/09/02 11:48:11;;;;;;;2.92;1.63;;;24.20;53.30;;;;;;4998386;28;88850;-33
2022/09/02 11:51:21;;;;;;;2.03;1.92;;;24.20;53.80;;;;;;4979883;28;90404;-33
2022/09/02 11:53:48;;;;;;;5.15;2.65;;;24.20;53.10;;;;;;4953350;28;90560;-31
2022/09/02 11:56:24;;;;;;;1.58;1.40;;;24.20;53.60;;;;;;4997362;28;90260;-34
2022/09/02 11:58:51;;;;;;;2.15;1.60;;;24.10;53.30;;;;;;4997067;28;89813;-35
2022/09/02 12:01:31;;;;;;;1.52;1.40;;;24.20;53.10;;;;;;4998000;28;89547;-33
2022/09/02 12:04:04;;;;;;;2.20;1.65;;;24.20;53.20;;;;;;4997823;28;89813;-31
2022/09/02 12:06:31;;;;;;;6.03;2.20;;;24.30;52.90;;;;;;4996933;28;89520;-35
2022/09/02 12:08:59;;;;;;;1.80;1.63;;;24.30;52.80;;;;;;4995964;28;87699;-32
2022/09/02 12:11:38;;;;;;;4.43;2.30;;;24.40;52.00;;;;;;4995565;28;89260;-35
2022/09/02 12:14:23;;;;;;;4.20;2.17;;;24.40;51.80;;;;;;4987483;28;90062;-34
2022/09/02 12:17:04;;;;;;;2.25;1.77;;;24.50;53.20;;;;;;4998159;28;89635;-33
2022/09/02 12:19:43;;;;;;;1.80;1.70;;;24.50;53.90;;;;;;4998250;28;90101;-32
2022/09/02 12:22:14;;;;;;;2.80;1.45;;;24.50;52.10;;;;;;4997944;28;90800;-33
2022/09/02 12:24:57;;;;;;;3.88;1.90;;;24.50;53.20;;;;;;4997460;28;90932;-35
2022/09/02 12:27:34;;;;;;;1.63;1.52;;;24.50;53.30;;;;;;4996688;28;90496;-31
2022/09/02 12:29:59;;;;;;;2.10;1.98;;;24.60;53.40;;;;;;4997673;28;88930;-33
2022/09/02 12:32:50;;;;;;;2.75;1.73;;;24.70;53.40;;;;;;5011414;22;90094;31
2022/09/02 12:35:50;;;;;;;3.28;2.10;;;24.70;52.20;;;;;;4916655;28;89622;-35
2022/09/02 12:38:22;;;;;;;2.97;2.10;;;24.70;52.50;;;;;;4915421;28;90110;-36
2022/09/02 12:41:05;;;;;;;3.50;1.95;;;24.70;53.10;;;;;;4918519;28;88432;-35
2022/09/02 12:43:37;;;;;;;1.85;1.75;;;24.80;51.00;;;;;;4918606;28;90125;-33
2022/09/02 12:46:20;;;;;;;3.30;1.77;;;24.70;51.60;;;;;;4907631;28;91518;-33
2022/09/02 12:49:15;;;;;;;3.58;1.80;;;24.70;51.50;;;;;;4917854;28;91547;-33
2022/09/02 12:52:02;;;;;;;2.38;2.03;;;24.70;51.40;;;;;;4917773;28;90404;-32
2022/09/02 12:54:38;;;;;;;2.05;1.88;;;24.70;50.90;;;;;;4918120;28;88930;-32
2022/09/02 12:57:05;;;;;;;2.15;1.63;;;24.60;51.50;;;;;;4919008;28;90144;-33
2022/09/02 12:59:34;;;;;;;2.53;2.00;;;24.50;51.30;;;;;;4918316;28;89488;-32
2022/09/02 13:02:21;;;;;;;3.67;2.03;;;24.50;51.80;;;;;;4917988;28;89628;-33
2022/09/02 13:04:54;;;;;;;2.83;2.05;;;24.60;51.00;;;;;;4918036;28;89114;-33
2022/09/02 13:07:32;;;;;;;3.13;2.15;;;24.50;51.60;;;;;;4918311;28;91188;-32
2022/09/02 13:10:22;;;;;;;;;;;24.60;51.90;;;;;;4919434;28;89603;-33